createdAt,value
2022-09-07T00:00:08.610Z,100812.34
2022-09-07T00:02:57.739Z,100811.20
2022-09-07T00:05:26.523Z,100810.63
2022-09-07T00:07:56.309Z,100809.14
2022-09-07T00:10:39.370Z,100808.23
2022-09-07T00:13:09.049Z,100804.16
2022-09-07T00:15:41.110Z,100805.30
2022-09-07T00:18:24.615Z,100803.30
2022-09-07T00:21:06.810Z,100801.85
2022-09-07T00:23:37.665Z,100798.41
2022-09-07T00:26:12.867Z,100799.35
2022-09-07T00:28:42.827Z,100797.71
2022-09-07T00:31:16.172Z,100792.89
2022-09-07T00:33:45.910Z,100790.13
2022-09-07T00:36:16.619Z,100792.36
2022-09-07T00:38:46.827Z,100786.23
2022-09-07T00:41:17.286Z,100792.09
2022-09-07T00:43:49.827Z,100788.72
2022-09-07T00:46:32.365Z,100788.64
2022-09-07T00:49:09.706Z,100790.27
2022-09-07T00:51:49.620Z,100789.05
2022-09-07T00:54:39.913Z,100791.92
2022-09-07T00:57:23.538Z,100795.09
2022-09-07T00:59:54.320Z,100798.86
2022-09-07T01:02:25.076Z,100794.78
2022-09-07T01:05:01.366Z,100797.14
2022-09-07T01:07:30.196Z,100796.05
2022-09-07T01:10:01.817Z,100794.36
2022-09-07T01:12:31.651Z,100796.16
2022-09-07T01:15:01.318Z,100793.23
2022-09-07T01:17:47.782Z,100792.91
2022-09-07T01:20:35.558Z,100793.15
2022-09-07T01:23:23.425Z,100791.34
2022-09-07T01:26:30.110Z,100788.64
2022-09-07T01:29:28.219Z,100782.55
2022-09-07T01:32:12.282Z,100781.65
2022-09-07T01:34:44.563Z,100779.65
2022-09-07T01:37:19.254Z,100776.30
2022-09-07T01:39:54.486Z,100779.65
2022-09-07T01:43:07.332Z,100777.36
2022-09-07T01:45:41.484Z,100781.26
2022-09-07T01:48:26.784Z,100778.54
2022-09-07T01:51:04.353Z,100782.60
2022-09-07T01:53:39.803Z,100781.24
2022-09-07T01:56:13.914Z,100780.77
2022-09-07T01:59:01.515Z,100781.52
2022-09-07T02:01:40.319Z,100782.59
2022-09-07T02:04:15.992Z,100779.94
2022-09-07T02:06:54.441Z,100775.98
2022-09-07T02:09:54.007Z,100775.63
2022-09-07T02:12:32.857Z,100776.55
2022-09-07T02:15:07.989Z,100773.70
2022-09-07T02:17:42.486Z,100771.73
2022-09-07T02:20:33.781Z,100776.02
2022-09-07T02:23:08.939Z,100770.19
2022-09-07T02:25:45.367Z,100767.81
2022-09-07T02:28:19.458Z,100769.52
2022-09-07T02:31:03.181Z,100773.67
2022-09-07T02:33:45.800Z,100768.21
2022-09-07T02:36:17.868Z,100767.62
2022-09-07T02:38:47.302Z,100764.61
2022-09-07T02:41:37.449Z,100755.39
2022-09-07T02:44:31.977Z,100754.63
2022-09-07T02:47:26.092Z,100756.64
2022-09-07T02:50:27.405Z,100759.85
2022-09-07T02:53:07.235Z,100756.95
2022-09-07T02:56:13.897Z,100756.90
2022-09-07T02:58:58.096Z,100757.13
2022-09-07T03:01:59.265Z,100758.29
2022-09-07T03:04:50.357Z,100754.77
2022-09-07T03:07:45.242Z,100754.22
2022-09-07T03:10:15.762Z,100754.07
2022-09-07T03:12:50.652Z,100751.09
2022-09-07T03:15:26.824Z,100748.52
2022-09-07T03:17:55.987Z,100750.88
2022-09-07T03:20:25.528Z,100750.15
2022-09-07T03:23:08.098Z,100747.77
2022-09-07T03:25:37.566Z,100746.05
2022-09-07T03:28:07.287Z,100749.41
2022-09-07T03:30:50.227Z,100746.16
2022-09-07T03:33:19.708Z,100742.25
2022-09-07T03:36:03.063Z,100745.81
2022-09-07T03:38:32.651Z,100746.30
2022-09-07T03:41:05.313Z,100748.00
2022-09-07T03:43:35.340Z,100750.29
2022-09-07T03:46:07.194Z,100746.16
2022-09-07T03:48:39.415Z,100747.75
2022-09-07T03:51:21.871Z,100747.23
2022-09-07T03:53:52.019Z,100756.84
2022-09-07T03:56:23.414Z,100752.91
2022-09-07T03:58:54.600Z,100754.85
2022-09-07T04:01:25.818Z,100757.39
2022-09-07T04:04:02.167Z,100758.80
2022-09-07T04:06:32.741Z,100764.06
2022-09-07T04:09:04.730Z,100766.58
2022-09-07T04:11:47.259Z,100766.34
2022-09-07T04:14:30.126Z,100768.70
2022-09-07T04:16:59.341Z,100769.84
2022-09-07T04:19:30.310Z,100770.59
2022-09-07T04:21:59.509Z,100770.99
2022-09-07T04:24:28.989Z,100770.66
2022-09-07T04:27:11.466Z,100766.71
2022-09-07T04:29:40.577Z,100764.15
2022-09-07T04:32:12.465Z,100759.19
2022-09-07T04:34:45.119Z,100760.51
2022-09-07T04:37:14.266Z,100758.81
2022-09-07T04:39:43.786Z,100760.83
2022-09-07T04:42:12.886Z,100759.36
2022-09-07T04:44:41.983Z,100757.58
2022-09-07T04:47:11.356Z,100760.38
2022-09-07T04:49:40.701Z,100762.73
2022-09-07T04:52:09.906Z,100763.48
2022-09-07T04:54:38.988Z,100763.34
2022-09-07T04:57:24.621Z,100763.67
2022-09-07T04:59:53.466Z,100764.10
2022-09-07T05:02:22.708Z,100761.77
2022-09-07T05:05:08.556Z,100763.79
2022-09-07T05:07:38.191Z,100762.98
2022-09-07T05:10:08.198Z,100760.52
2022-09-07T05:13:14.190Z,100760.02
2022-09-07T05:15:44.619Z,100759.02
2022-09-07T05:18:16.989Z,100759.73
2022-09-07T05:20:46.165Z,100758.63
2022-09-07T05:23:15.504Z,100757.20
2022-09-07T05:25:47.485Z,100752.68
2022-09-07T05:28:19.447Z,100747.42
2022-09-07T05:37:01.209Z,100737.79
2022-09-07T05:39:30.908Z,100732.90
2022-09-07T05:41:59.974Z,100738.60
2022-09-07T05:44:46.305Z,100737.69
2022-09-07T05:47:16.046Z,100741.23
2022-09-07T05:49:44.882Z,100739.55
2022-09-07T05:52:13.520Z,100737.70
2022-09-07T05:54:42.909Z,100734.30
2022-09-07T05:57:25.566Z,100731.63
2022-09-07T05:59:54.185Z,100734.51
2022-09-07T06:02:23.270Z,100737.38
2022-09-07T06:04:52.162Z,100735.28
2022-09-07T06:07:22.705Z,100727.40
2022-09-07T06:12:58.296Z,100722.36
2022-09-07T06:15:40.826Z,100720.41
2022-09-07T06:18:09.769Z,100727.34
2022-09-07T06:20:39.459Z,100732.27
2022-09-07T06:23:08.356Z,100735.61
2022-09-07T06:25:36.980Z,100733.73
2022-09-07T06:28:06.137Z,100735.13
2022-09-07T06:30:35.020Z,100740.67
2022-09-07T06:33:03.973Z,100748.66
2022-09-07T06:35:33.461Z,100755.59
2022-09-07T06:38:01.988Z,100753.36
2022-09-07T06:40:33.789Z,100752.92
2022-09-07T06:43:02.409Z,100752.06
2022-09-07T06:45:31.763Z,100748.86
2022-09-07T06:48:14.299Z,100746.46
2022-09-07T06:50:43.820Z,100736.76
2022-09-07T06:56:05.569Z,100734.79
2022-09-07T06:58:47.974Z,100736.84
2022-09-07T07:01:22.393Z,100728.11
2022-09-07T07:04:05.191Z,100724.95
2022-09-07T07:06:35.668Z,100720.83
2022-09-07T07:09:06.936Z,100718.95
2022-09-07T07:11:37.771Z,100720.40
2022-09-07T07:14:21.320Z,100720.56
2022-09-07T07:17:04.500Z,100728.70
2022-09-07T07:19:33.183Z,100729.70
2022-09-07T07:22:18.651Z,100725.36
2022-09-07T07:24:51.855Z,100732.36
2022-09-07T07:27:22.265Z,100732.89
2022-09-07T07:29:52.676Z,100730.55
2022-09-07T07:32:22.243Z,100730.83
2022-09-07T07:34:51.726Z,100739.27
2022-09-07T07:37:27.774Z,100739.34
2022-09-07T07:42:43.692Z,100738.71
2022-09-07T07:48:04.702Z,100730.80
2022-09-07T07:50:34.319Z,100725.02
2022-09-07T07:56:19.443Z,100717.43
2022-09-07T07:59:01.982Z,100722.55
2022-09-07T08:01:31.398Z,100724.18
2022-09-07T08:04:14.016Z,100723.01
2022-09-07T08:06:44.251Z,100720.26
2022-09-07T08:09:13.327Z,100717.45
2022-09-07T08:11:56.288Z,100711.52
2022-09-07T08:14:41.890Z,100705.64
2022-09-07T08:17:14.029Z,100707.46
2022-09-07T08:19:43.674Z,100709.52
2022-09-07T08:22:13.291Z,100715.19
2022-09-07T08:24:42.357Z,100713.89
2022-09-07T08:27:11.605Z,100714.52
2022-09-07T08:29:41.112Z,100713.80
2022-09-07T08:32:10.660Z,100711.71
2022-09-07T08:34:40.155Z,100714.42
2022-09-07T08:37:09.225Z,100706.56
2022-09-07T08:39:38.320Z,100698.67
2022-09-07T08:42:31.229Z,100694.60
2022-09-07T08:45:40.448Z,100690.39
2022-09-07T08:48:15.194Z,100693.56
2022-09-07T08:51:13.656Z,100697.11
2022-09-07T08:53:47.367Z,100695.81
2022-09-07T08:56:39.727Z,100690.27
2022-09-07T08:59:30.781Z,100692.63
2022-09-07T09:08:02.624Z,100690.50
2022-09-07T09:10:51.309Z,100689.13
2022-09-07T09:13:24.749Z,100683.69
2022-09-07T09:16:19.844Z,100678.63
2022-09-07T09:19:30.515Z,100677.06
2022-09-07T09:22:19.265Z,100669.01
2022-09-07T09:25:06.069Z,100668.23
2022-09-07T09:27:35.415Z,100670.34
2022-09-07T09:30:20.324Z,100666.34
2022-09-07T09:32:52.977Z,100662.41
2022-09-07T09:35:38.315Z,100662.19
2022-09-07T09:38:30.577Z,100654.53
2022-09-07T09:41:05.513Z,100660.02
2022-09-07T09:43:52.272Z,100662.45
2022-09-07T09:46:37.534Z,100659.97
2022-09-07T09:49:21.176Z,100658.80
2022-09-07T09:54:52.740Z,100664.26
2022-09-07T10:01:21.105Z,100661.45
2022-09-07T10:06:22.231Z,100659.52
2022-09-07T10:09:18.012Z,100659.30
2022-09-07T10:12:07.393Z,100649.67
2022-09-07T10:14:44.647Z,100646.48
2022-09-07T10:17:33.905Z,100637.83
2022-09-07T10:20:16.323Z,100641.62
2022-09-07T10:23:06.853Z,100640.40
2022-09-07T10:25:41.932Z,100635.66
2022-09-07T10:28:12.882Z,100632.74
2022-09-07T10:31:21.408Z,100622.98
2022-09-07T10:37:11.827Z,100616.35
2022-09-07T10:40:07.260Z,100616.86
2022-09-07T10:43:20.729Z,100616.95
2022-09-07T10:45:51.455Z,100610.02
2022-09-07T10:48:26.512Z,100609.45
2022-09-07T10:51:37.641Z,100607.10
2022-09-07T10:54:31.318Z,100603.87
2022-09-07T10:57:44.582Z,100604.84
2022-09-07T11:00:20.639Z,100604.66
2022-09-07T11:03:27.371Z,100598.54
2022-09-07T11:06:29.733Z,100599.85
2022-09-07T11:09:33.761Z,100596.50
2022-09-07T11:12:09.364Z,100591.60
2022-09-07T11:14:59.407Z,100599.45
2022-09-07T11:17:34.979Z,100597.21
2022-09-07T11:20:33.199Z,100591.32
2022-09-07T11:23:23.099Z,100593.46
2022-09-07T11:26:02.635Z,100586.30
2022-09-07T11:29:29.123Z,100585.27
2022-09-07T11:32:15.983Z,100589.08
2022-09-07T11:34:57.881Z,100583.89
2022-09-07T11:37:50.279Z,100583.48
2022-09-07T11:40:43.507Z,100580.16
2022-09-07T11:43:31.347Z,100576.34
2022-09-07T11:46:06.637Z,100573.65
2022-09-07T11:48:43.794Z,100576.09
2022-09-07T11:51:22.930Z,100572.48
2022-09-07T11:53:57.838Z,100574.68
2022-09-07T11:56:39.138Z,100572.09
2022-09-07T11:59:40.227Z,100568.63
2022-09-07T12:02:59.333Z,100560.24
2022-09-07T12:05:44.984Z,100564.91
2022-09-07T12:08:33.229Z,100563.25
2022-09-07T12:11:11.299Z,100555.27
2022-09-07T12:13:52.281Z,100556.80
2022-09-07T12:17:20.451Z,100553.23
2022-09-07T12:20:15.659Z,100552.73
2022-09-07T12:23:05.711Z,100556.77
2022-09-07T12:25:35.577Z,100554.08
2022-09-07T12:28:05.007Z,100548.96
2022-09-07T12:30:34.537Z,100543.51
2022-09-07T12:33:20.401Z,100540.89
2022-09-07T12:36:28.915Z,100538.75
2022-09-07T12:39:28.901Z,100534.79
2022-09-07T12:42:32.939Z,100530.55
2022-09-07T12:45:34.151Z,100524.88
2022-09-07T12:48:11.052Z,100525.48
2022-09-07T12:51:02.990Z,100519.83
2022-09-07T12:53:58.005Z,100520.67
2022-09-07T13:00:23.712Z,100516.80
2022-09-07T13:06:06.431Z,100514.06
2022-09-07T13:08:54.562Z,100510.16
2022-09-07T13:11:42.742Z,100505.13
2022-09-07T13:14:15.066Z,100505.70
2022-09-07T13:19:49.481Z,100506.59
2022-09-07T13:22:42.176Z,100502.94
2022-09-07T13:25:27.733Z,100501.48
2022-09-07T13:28:23.597Z,100502.27
2022-09-07T13:31:34.227Z,100500.26
2022-09-07T13:34:37.543Z,100491.98
2022-09-07T13:37:20.189Z,100485.85
2022-09-07T13:39:52.922Z,100485.73
2022-09-07T13:42:29.714Z,100474.77
2022-09-07T13:45:02.704Z,100471.77
2022-09-07T13:47:44.358Z,100472.45
2022-09-07T13:50:21.687Z,100473.98
2022-09-07T13:53:40.946Z,100468.77
2022-09-07T13:56:17.163Z,100463.42
2022-09-07T13:59:01.206Z,100459.19
2022-09-07T14:01:30.825Z,100459.55
2022-09-07T14:04:08.317Z,100456.16
2022-09-07T14:06:39.370Z,100458.77
2022-09-07T14:09:19.024Z,100451.89
2022-09-07T14:11:54.674Z,100453.25
2022-09-07T14:14:37.357Z,100454.79
2022-09-07T14:17:13.035Z,100453.33
2022-09-07T14:19:43.331Z,100453.54
2022-09-07T14:22:18.384Z,100451.46
2022-09-07T14:24:51.268Z,100450.29
2022-09-07T14:27:25.831Z,100451.42
2022-09-07T14:30:28.535Z,100452.88
2022-09-07T14:33:02.516Z,100454.52
2022-09-07T14:35:38.890Z,100453.89
2022-09-07T14:41:17.456Z,100452.65
2022-09-07T14:44:00.543Z,100440.45
2022-09-07T14:46:33.310Z,100439.57
2022-09-07T14:49:18.905Z,100437.79
2022-09-07T14:51:48.712Z,100430.01
2022-09-07T14:54:35.327Z,100429.16
2022-09-07T14:57:10.633Z,100432.69
2022-09-07T14:59:44.720Z,100426.98
2022-09-07T15:02:24.620Z,100427.25
2022-09-07T15:05:15.300Z,100422.73
2022-09-07T15:07:53.134Z,100420.85
2022-09-07T15:10:23.164Z,100423.88
2022-09-07T15:13:23.215Z,100425.64
2022-09-07T15:16:02.182Z,100425.98
2022-09-07T15:18:52.713Z,100424.70
2022-09-07T15:21:39.750Z,100425.91
2022-09-07T15:24:22.315Z,100420.35
2022-09-07T15:27:09.568Z,100416.30
2022-09-07T15:29:38.957Z,100411.33
2022-09-07T15:32:10.633Z,100407.75
2022-09-07T15:34:39.525Z,100404.84
2022-09-07T15:39:58.823Z,100407.64
2022-09-07T15:45:18.238Z,100402.16
2022-09-07T15:48:00.835Z,100401.98
2022-09-07T15:50:29.452Z,100404.90
2022-09-07T15:53:01.042Z,100407.21
2022-09-07T15:55:30.066Z,100411.98
2022-09-07T15:58:10.962Z,100408.08
2022-09-07T16:01:51.593Z,100409.04
2022-09-07T16:03:43.313Z,100406.73
2022-09-07T16:06:27.331Z,100403.86
2022-09-07T16:08:56.728Z,100402.93
2022-09-07T16:11:27.766Z,100406.58
2022-09-07T16:14:02.996Z,100407.80
2022-09-07T16:19:24.321Z,100401.67
2022-09-07T16:22:09.378Z,100401.51
2022-09-07T16:24:38.844Z,100406.15
2022-09-07T16:27:08.425Z,100408.67
2022-09-07T16:29:37.908Z,100409.88
2022-09-07T16:35:00.900Z,100407.67
2022-09-07T16:37:30.156Z,100409.68
2022-09-07T16:39:59.466Z,100407.04
2022-09-07T16:42:58.078Z,100407.17
2022-09-07T16:48:20.207Z,100399.29
2022-09-07T16:51:01.135Z,100398.09
2022-09-07T16:53:33.727Z,100403.02
2022-09-07T16:56:07.482Z,100406.86
2022-09-07T16:58:53.517Z,100406.56
2022-09-07T17:01:25.471Z,100403.27
2022-09-07T17:04:11.287Z,100403.19
2022-09-07T17:06:57.128Z,100400.91
2022-09-07T17:09:28.895Z,100407.31
2022-09-07T17:11:58.076Z,100411.67
2022-09-07T17:14:28.756Z,100408.73
2022-09-07T17:16:57.583Z,100408.43
2022-09-07T17:19:29.939Z,100410.59
2022-09-07T17:22:00.805Z,100414.10
2022-09-07T17:24:32.171Z,100413.10
2022-09-07T17:27:02.463Z,100412.02
2022-09-07T17:29:38.353Z,100411.79
2022-09-07T17:32:24.412Z,100405.55
2022-09-07T17:34:55.991Z,100408.47
2022-09-07T17:37:25.736Z,100411.08
2022-09-07T17:40:10.022Z,100415.80
2022-09-07T17:45:31.116Z,100417.98
2022-09-07T17:48:13.727Z,100417.46
2022-09-07T17:50:43.263Z,100418.38
2022-09-07T17:53:12.138Z,100420.34
2022-09-07T17:55:54.431Z,100428.42
2022-09-07T17:58:23.069Z,100428.10
2022-09-07T18:00:52.807Z,100426.67
2022-09-07T18:03:22.349Z,100425.42
2022-09-07T18:05:54.801Z,100423.27
2022-09-07T18:08:38.840Z,100418.46
2022-09-07T18:14:00.667Z,100421.42
2022-09-07T18:16:32.695Z,100428.69
2022-09-07T18:19:05.087Z,100428.14
2022-09-07T18:21:48.714Z,100422.27
2022-09-07T18:24:21.663Z,100421.77
2022-09-07T18:26:53.292Z,100422.71
2022-09-07T18:29:29.365Z,100422.51
2022-09-07T18:32:01.140Z,100414.30
2022-09-07T18:34:31.884Z,100420.98
2022-09-07T18:37:01.573Z,100425.58
2022-09-07T18:39:36.356Z,100425.90
2022-09-07T18:42:05.590Z,100420.45
2022-09-07T18:47:39.909Z,100427.95
2022-09-07T18:52:53.098Z,100430.95
2022-09-07T18:55:24.015Z,100426.67
2022-09-07T18:57:53.388Z,100426.66
2022-09-07T19:00:22.323Z,100422.11
2022-09-07T19:02:51.597Z,100424.05
2022-09-07T19:08:10.013Z,100428.19
2022-09-07T19:10:39.411Z,100425.77
2022-09-07T19:13:08.732Z,100428.98
2022-09-07T19:15:38.320Z,100430.50
2022-09-07T19:18:08.915Z,100425.92
2022-09-07T19:20:40.912Z,100420.83
2022-09-07T19:23:11.909Z,100417.84
2022-09-07T19:25:41.870Z,100420.95
2022-09-07T19:28:10.713Z,100419.72
2022-09-07T19:30:39.692Z,100426.80
2022-09-07T19:33:12.350Z,100422.98
2022-09-07T19:35:42.987Z,100421.95
2022-09-07T19:38:13.036Z,100420.89
2022-09-07T19:40:41.976Z,100425.02
2022-09-07T19:43:10.792Z,100426.36
2022-09-07T19:45:41.003Z,100424.44
2022-09-07T19:48:10.783Z,100425.38
2022-09-07T19:50:40.750Z,100428.81
2022-09-07T19:53:09.550Z,100430.14
2022-09-07T19:55:38.815Z,100436.39
2022-09-07T19:58:08.137Z,100429.16
2022-09-07T20:00:39.692Z,100434.13
2022-09-07T20:03:11.033Z,100430.55
2022-09-07T20:05:42.209Z,100428.94
2022-09-07T20:08:11.297Z,100431.44
2022-09-07T20:10:40.596Z,100436.80
2022-09-07T20:13:09.531Z,100431.95
2022-09-07T20:15:43.262Z,100427.97
2022-09-07T20:18:12.415Z,100432.73
2022-09-07T20:20:40.979Z,100429.50
2022-09-07T20:26:09.584Z,100429.94
2022-09-07T20:28:41.142Z,100428.27
2022-09-07T20:31:15.760Z,100431.82
2022-09-07T20:33:46.731Z,100429.20
2022-09-07T20:36:18.416Z,100432.30
2022-09-07T20:38:55.699Z,100433.38
2022-09-07T20:41:30.375Z,100428.63
2022-09-07T20:44:01.554Z,100430.66
2022-09-07T20:46:31.668Z,100428.98
2022-09-07T20:49:02.138Z,100423.08
2022-09-07T20:51:31.531Z,100418.38
2022-09-07T20:54:00.687Z,100417.19
2022-09-07T20:56:31.343Z,100418.73
2022-09-07T20:59:02.402Z,100419.70
2022-09-07T21:01:33.655Z,100419.92
2022-09-07T21:04:02.890Z,100422.88
2022-09-07T21:06:33.195Z,100419.77
2022-09-07T21:09:15.545Z,100421.38
2022-09-07T21:11:48.646Z,100425.25
2022-09-07T21:14:21.542Z,100422.48
2022-09-07T21:17:04.049Z,100421.61
2022-09-07T21:19:33.647Z,100419.56
2022-09-07T21:22:02.947Z,100420.13
2022-09-07T21:24:32.237Z,100424.91
2022-09-07T21:27:14.685Z,100425.65
2022-09-07T21:29:43.840Z,100432.23
2022-09-07T21:32:13.035Z,100433.11
2022-09-07T21:34:42.518Z,100431.07
2022-09-07T21:37:11.592Z,100431.21
2022-09-07T21:39:40.593Z,100435.16
2022-09-07T21:42:10.058Z,100434.30
2022-09-07T21:44:39.184Z,100433.52
2022-09-07T21:47:08.622Z,100435.10
2022-09-07T21:49:37.386Z,100435.27
2022-09-07T21:52:06.236Z,100435.64
2022-09-07T21:54:35.330Z,100436.21
2022-09-07T21:57:04.958Z,100433.44
2022-09-07T21:59:34.787Z,100434.57
2022-09-07T22:02:03.684Z,100436.20
2022-09-07T22:04:46.190Z,100434.65
2022-09-07T22:07:15.210Z,100433.23
2022-09-07T22:09:44.253Z,100435.98
2022-09-07T22:12:26.663Z,100438.69
2022-09-07T22:15:09.486Z,100443.37
2022-09-07T22:17:39.904Z,100439.17
2022-09-07T22:20:12.845Z,100434.35
2022-09-07T22:22:41.904Z,100432.72
2022-09-07T22:25:10.753Z,100426.61
2022-09-07T22:27:41.259Z,100417.67
2022-09-07T22:30:11.154Z,100416.77
2022-09-07T22:32:40.450Z,100420.05
2022-09-07T22:35:10.524Z,100416.52
2022-09-07T22:37:39.612Z,100412.45
2022-09-07T22:40:10.034Z,100409.05
2022-09-07T22:42:39.347Z,100411.02
2022-09-07T22:45:09.525Z,100407.54
2022-09-07T22:47:51.984Z,100406.85
2022-09-07T22:50:21.656Z,100405.02
2022-09-07T22:52:50.728Z,100410.61
2022-09-07T22:55:33.183Z,100408.92
2022-09-07T22:58:15.824Z,100407.95
2022-09-07T23:01:02.495Z,100408.98
2022-09-07T23:03:45.962Z,100408.64
2022-09-07T23:06:21.978Z,100409.27
2022-09-07T23:09:11.041Z,100404.14
2022-09-07T23:11:40.983Z,100405.41
2022-09-07T23:14:23.935Z,100405.21
2022-09-07T23:17:06.393Z,100406.59
2022-09-07T23:19:35.471Z,100408.83
2022-09-07T23:22:04.564Z,100410.33
2022-09-07T23:24:34.302Z,100409.23
2022-09-07T23:27:04.086Z,100408.19
2022-09-07T23:29:47.248Z,100408.35
2022-09-07T23:32:16.157Z,100409.52
2022-09-07T23:34:59.231Z,100410.60
2022-09-07T23:37:28.129Z,100411.23
2022-09-07T23:39:57.566Z,100408.28
2022-09-07T23:42:40.483Z,100412.65
2022-09-07T23:45:22.832Z,100411.20
2022-09-07T23:47:52.465Z,100409.17
2022-09-07T23:50:34.974Z,100407.23
2022-09-07T23:53:18.832Z,100411.23
2022-09-07T23:55:53.233Z,100414.19
2022-09-07T23:58:23.683Z,100412.55
